createdAt,value
2023-05-02T00:01:44.276Z,10.61
2023-05-02T00:04:12.001Z,10.58
2023-05-02T00:06:39.872Z,10.54
2023-05-02T00:09:07.606Z,10.51
2023-05-02T00:11:35.451Z,10.49
2023-05-02T00:14:03.178Z,10.46
2023-05-02T00:16:30.909Z,10.44
2023-05-02T00:18:58.761Z,10.42
2023-05-02T00:21:29.293Z,10.39
2023-05-02T00:24:00.233Z,10.37
2023-05-02T00:26:28.904Z,10.35
2023-05-02T00:28:56.538Z,10.32
2023-05-02T00:31:24.281Z,10.31
2023-05-02T00:33:51.997Z,10.29
2023-05-02T00:36:19.877Z,10.27
2023-05-02T00:38:47.747Z,10.25
2023-05-02T00:41:17.249Z,10.24
2023-05-02T00:43:45.095Z,10.23
2023-05-02T00:46:13.500Z,10.20
2023-05-02T00:48:41.308Z,10.18
2023-05-02T00:51:12.193Z,10.16
2023-05-02T00:53:40.591Z,10.14
2023-05-02T00:56:08.805Z,10.12
2023-05-02T00:58:38.223Z,10.10
2023-05-02T01:01:18.256Z,10.08
2023-05-02T01:03:49.190Z,10.07
2023-05-02T01:06:39.636Z,10.05
2023-05-02T01:09:31.435Z,10.04
2023-05-02T01:12:03.466Z,10.01
2023-05-02T01:14:34.965Z,9.99
2023-05-02T01:17:06.549Z,9.98
2023-05-02T01:19:36.744Z,9.97
2023-05-02T01:22:06.190Z,9.96
2023-05-02T01:24:55.527Z,9.96
2023-05-02T01:27:43.388Z,9.96
2023-05-02T01:30:11.105Z,9.95
2023-05-02T01:32:39.710Z,9.95
2023-05-02T01:35:07.939Z,9.95
2023-05-02T01:37:37.106Z,9.96
2023-05-02T01:40:05.329Z,9.95
2023-05-02T01:42:33.070Z,9.95
2023-05-02T01:45:00.723Z,9.95
2023-05-02T01:47:29.389Z,9.95
2023-05-02T01:49:58.000Z,9.95
2023-05-02T01:52:25.948Z,9.96
2023-05-02T01:54:53.691Z,9.98
2023-05-02T01:57:21.287Z,9.99
2023-05-02T01:59:48.918Z,10.03
2023-05-02T02:02:16.706Z,10.06
2023-05-02T02:04:44.451Z,10.09
2023-05-02T02:07:13.489Z,10.12
2023-05-02T02:09:41.146Z,10.16
2023-05-02T02:12:13.295Z,10.20
2023-05-02T02:14:43.168Z,10.24
2023-05-02T02:17:26.649Z,10.29
2023-05-02T02:19:54.886Z,10.34
2023-05-02T02:22:24.056Z,10.37
2023-05-02T02:24:53.710Z,10.41
2023-05-02T02:27:22.254Z,10.43
2023-05-02T02:29:49.930Z,10.47
2023-05-02T02:32:17.548Z,10.49
2023-05-02T02:34:45.221Z,10.52
2023-05-02T02:37:20.190Z,10.53
2023-05-02T02:40:07.214Z,10.55
2023-05-02T02:42:40.024Z,10.56
2023-05-02T02:45:46.055Z,10.57
2023-05-02T02:48:18.204Z,10.58
2023-05-02T02:50:59.999Z,10.58
2023-05-02T02:54:18.935Z,10.59
2023-05-02T02:57:07.132Z,10.60
2023-05-02T02:59:35.896Z,10.60
2023-05-02T03:02:10.358Z,10.60
2023-05-02T03:04:44.589Z,10.60
2023-05-02T03:07:12.807Z,10.59
2023-05-02T03:09:44.217Z,10.59
2023-05-02T03:12:12.188Z,10.59
2023-05-02T03:14:40.424Z,10.59
2023-05-02T03:17:10.741Z,10.59
2023-05-02T03:19:38.439Z,10.58
2023-05-02T03:22:06.004Z,10.57
2023-05-02T03:24:33.672Z,10.55
2023-05-02T03:27:01.414Z,10.52
2023-05-02T03:29:29.139Z,10.51
2023-05-02T03:31:56.826Z,10.49
2023-05-02T03:34:24.490Z,10.49
2023-05-02T03:36:52.074Z,10.50
2023-05-02T03:39:19.726Z,10.49
2023-05-02T03:41:47.399Z,10.49
2023-05-02T03:44:15.058Z,10.48
2023-05-02T03:46:43.125Z,10.48
2023-05-02T03:49:11.069Z,10.48
2023-05-02T03:51:38.631Z,10.47
2023-05-02T03:54:06.273Z,10.46
2023-05-02T03:56:33.872Z,10.45
2023-05-02T03:59:01.552Z,10.45
2023-05-02T04:01:29.258Z,10.45
2023-05-02T04:03:57.044Z,10.46
2023-05-02T04:06:24.826Z,10.48
2023-05-02T04:08:52.568Z,10.50
2023-05-02T04:11:20.431Z,10.52
2023-05-02T04:13:48.054Z,10.56
2023-05-02T04:16:15.721Z,10.60
2023-05-02T04:18:43.492Z,10.64
2023-05-02T04:21:11.117Z,10.69
2023-05-02T04:23:39.171Z,10.73
2023-05-02T04:26:07.235Z,10.78
2023-05-02T04:28:39.043Z,10.84
2023-05-02T04:31:07.527Z,10.91
2023-05-02T04:33:35.255Z,10.96
2023-05-02T04:36:03.020Z,11.03
2023-05-02T04:38:30.674Z,11.10
2023-05-02T04:40:58.333Z,11.16
2023-05-02T04:43:26.279Z,11.22
2023-05-02T04:45:54.061Z,11.28
2023-05-02T04:48:22.123Z,11.35
2023-05-02T04:50:49.760Z,11.41
2023-05-02T04:53:17.352Z,11.46
2023-05-02T04:55:44.964Z,11.52
2023-05-02T04:58:12.803Z,11.59
2023-05-02T05:00:40.414Z,11.65
2023-05-02T05:03:08.235Z,11.70
2023-05-02T05:05:35.993Z,11.75
2023-05-02T05:08:03.981Z,11.81
2023-05-02T05:10:31.583Z,11.87
2023-05-02T05:12:59.199Z,11.93
2023-05-02T05:15:27.452Z,11.99
2023-05-02T05:17:55.166Z,12.05
2023-05-02T05:20:22.886Z,12.13
2023-05-02T05:22:50.729Z,12.21
2023-05-02T05:25:18.495Z,12.29
2023-05-02T05:27:46.653Z,12.40
2023-05-02T05:30:14.298Z,12.50
2023-05-02T05:32:41.890Z,12.62
2023-05-02T05:35:10.227Z,12.74
2023-05-02T05:37:39.498Z,12.87
2023-05-02T05:40:08.599Z,12.99
2023-05-02T05:42:36.267Z,13.11
2023-05-02T05:45:04.443Z,13.22
2023-05-02T05:47:32.290Z,13.33
2023-05-02T05:50:01.078Z,13.43
2023-05-02T05:52:29.376Z,13.55
2023-05-02T05:54:57.217Z,13.66
2023-05-02T05:57:24.968Z,13.76
2023-05-02T05:59:52.976Z,13.88
2023-05-02T06:02:20.834Z,14.00
2023-05-02T06:04:48.650Z,14.09
2023-05-02T06:07:16.462Z,14.19
2023-05-02T06:09:44.237Z,14.28
2023-05-02T06:12:11.875Z,14.37
2023-05-02T06:14:39.642Z,14.45
2023-05-02T06:17:07.424Z,14.54
2023-05-02T06:19:35.131Z,14.62
2023-05-02T06:22:02.797Z,14.69
2023-05-02T06:24:31.137Z,14.77
2023-05-02T06:26:58.936Z,14.86
2023-05-02T06:29:26.597Z,14.95
2023-05-02T06:31:57.206Z,15.04
2023-05-02T06:34:25.138Z,15.13
2023-05-02T06:36:58.643Z,15.20
2023-05-02T06:39:26.328Z,15.29
2023-05-02T06:41:58.203Z,15.35
2023-05-02T06:44:26.063Z,15.41
2023-05-02T06:46:53.778Z,15.50
2023-05-02T06:49:22.548Z,15.60
2023-05-02T06:51:50.211Z,15.69
2023-05-02T06:54:17.939Z,15.77
2023-05-02T06:56:45.859Z,15.82
2023-05-02T06:59:13.478Z,15.86
2023-05-02T07:01:41.469Z,15.90
2023-05-02T07:04:09.528Z,15.94
2023-05-02T07:06:37.328Z,15.96
2023-05-02T07:09:04.996Z,16.03
2023-05-02T07:11:32.767Z,16.09
2023-05-02T07:14:00.568Z,16.15
2023-05-02T07:16:28.390Z,16.19
2023-05-02T07:18:56.064Z,16.24
2023-05-02T07:21:23.686Z,16.28
2023-05-02T07:23:51.247Z,16.31
2023-05-02T07:26:20.273Z,16.36
2023-05-02T07:28:48.054Z,16.43
2023-05-02T07:31:17.645Z,16.50
2023-05-02T07:33:46.540Z,16.59
2023-05-02T07:36:14.191Z,16.67
2023-05-02T07:38:41.822Z,16.76
2023-05-02T07:41:09.469Z,16.83
2023-05-02T07:43:37.110Z,16.90
2023-05-02T07:46:06.530Z,16.96
2023-05-02T07:48:34.951Z,17.03
2023-05-02T07:51:06.912Z,17.13
2023-05-02T07:53:34.603Z,17.22
2023-05-02T07:56:08.467Z,17.27
2023-05-02T07:58:38.960Z,17.33
2023-05-02T08:01:06.656Z,17.37
2023-05-02T08:03:34.351Z,17.40
2023-05-02T08:06:02.525Z,17.46
2023-05-02T08:08:30.412Z,17.51
2023-05-02T08:10:58.039Z,17.57
2023-05-02T08:13:25.817Z,17.63
2023-05-02T08:15:58.174Z,17.66
2023-05-02T08:18:26.160Z,17.70
2023-05-02T08:20:58.537Z,17.77
2023-05-02T08:23:26.196Z,17.82
2023-05-02T08:25:54.308Z,17.84
2023-05-02T08:28:21.894Z,17.82
2023-05-02T08:30:49.582Z,17.82
2023-05-02T08:33:17.245Z,17.85
2023-05-02T08:35:45.047Z,17.88
2023-05-02T08:38:12.688Z,17.91
2023-05-02T08:40:42.937Z,17.93
2023-05-02T08:43:11.935Z,17.96
2023-05-02T08:45:41.023Z,17.99
2023-05-02T08:48:10.532Z,18.04
2023-05-02T08:50:43.446Z,18.08
2023-05-02T08:53:11.678Z,18.13
2023-05-02T08:55:40.822Z,18.19
2023-05-02T08:58:08.999Z,18.23
2023-05-02T09:00:41.116Z,18.29
2023-05-02T09:03:23.987Z,18.35
2023-05-02T09:05:53.463Z,18.45
2023-05-02T09:08:24.472Z,18.51
2023-05-02T09:10:52.381Z,18.58
2023-05-02T09:13:34.013Z,18.66
2023-05-02T09:16:09.577Z,18.71
2023-05-02T09:18:38.178Z,18.75
2023-05-02T09:21:17.952Z,18.77
2023-05-02T09:23:49.250Z,18.78
2023-05-02T09:26:33.993Z,18.80
2023-05-02T09:29:03.390Z,18.84
2023-05-02T09:31:54.789Z,18.88
2023-05-02T09:34:23.201Z,18.94
2023-05-02T09:36:52.188Z,18.98
2023-05-02T09:39:23.806Z,19.04
2023-05-02T09:41:53.419Z,19.10
2023-05-02T09:44:23.357Z,19.21
2023-05-02T09:46:52.444Z,19.33
2023-05-02T09:49:35.548Z,19.42
2023-05-02T09:52:13.832Z,19.53
2023-05-02T09:54:41.539Z,19.65
2023-05-02T09:57:11.055Z,19.75
2023-05-02T09:59:39.597Z,19.84
2023-05-02T10:02:09.726Z,19.87
2023-05-02T10:04:37.517Z,19.86
2023-05-02T10:07:06.648Z,19.81
2023-05-02T10:09:35.620Z,19.75
2023-05-02T10:12:08.371Z,19.71
2023-05-02T10:14:39.973Z,19.69
2023-05-02T10:17:23.096Z,19.71
2023-05-02T10:19:59.240Z,19.71
2023-05-02T10:22:27.111Z,19.70
2023-05-02T10:24:54.901Z,19.75
2023-05-02T10:27:22.572Z,19.88
2023-05-02T10:29:50.214Z,20.12
2023-05-02T10:32:17.991Z,20.40
2023-05-02T10:34:45.564Z,20.57
2023-05-02T10:37:13.192Z,20.70
2023-05-02T10:39:40.785Z,20.88
2023-05-02T10:42:08.415Z,20.99
2023-05-02T10:44:37.070Z,20.99
2023-05-02T10:47:21.540Z,20.88
2023-05-02T10:49:50.050Z,20.73
2023-05-02T10:52:34.246Z,20.65
2023-05-02T10:55:21.565Z,20.56
2023-05-02T10:58:01.126Z,20.45
2023-05-02T11:00:30.283Z,20.35
2023-05-02T11:02:58.240Z,20.26
2023-05-02T11:05:26.505Z,20.15
2023-05-02T11:08:16.814Z,20.11
2023-05-02T11:10:46.408Z,20.04
2023-05-02T11:13:14.097Z,19.95
2023-05-02T11:15:41.837Z,19.92
2023-05-02T11:18:12.543Z,19.92
2023-05-02T11:20:44.182Z,19.92
2023-05-02T11:23:27.302Z,19.93
2023-05-02T11:25:56.296Z,19.96
2023-05-02T11:28:45.911Z,19.96
2023-05-02T11:31:57.256Z,19.95
2023-05-02T11:34:25.116Z,19.90
2023-05-02T11:36:52.769Z,19.82
2023-05-02T11:39:21.155Z,19.73
2023-05-02T11:41:51.241Z,19.66
2023-05-02T11:44:18.900Z,19.59
2023-05-02T11:46:46.702Z,19.53
2023-05-02T11:49:15.231Z,19.51
2023-05-02T11:51:42.945Z,19.52
2023-05-02T11:54:18.472Z,19.49
2023-05-02T11:56:46.595Z,19.44
2023-05-02T11:59:14.235Z,19.34
2023-05-02T12:01:53.732Z,19.21
2023-05-02T12:04:23.999Z,19.13
2023-05-02T12:06:55.658Z,19.10
2023-05-02T12:09:23.763Z,19.07
2023-05-02T12:11:54.853Z,19.04
2023-05-02T12:14:33.665Z,19.02
2023-05-02T12:17:02.941Z,18.98
2023-05-02T12:19:30.559Z,18.93
2023-05-02T12:21:58.258Z,18.90
2023-05-02T12:24:26.043Z,18.90
2023-05-02T12:27:09.663Z,18.94
2023-05-02T12:29:41.491Z,18.93
2023-05-02T12:32:09.982Z,18.88
2023-05-02T12:34:38.084Z,18.82
2023-05-02T12:37:06.278Z,18.76
2023-05-02T12:39:40.777Z,18.73
2023-05-02T12:42:15.506Z,18.73
2023-05-02T12:44:44.665Z,18.70
2023-05-02T12:47:13.315Z,18.62
2023-05-02T12:50:01.715Z,18.58
2023-05-02T12:52:57.802Z,18.50
2023-05-02T12:55:27.361Z,18.50
2023-05-02T12:58:05.522Z,18.46
2023-05-02T13:00:34.848Z,18.42
2023-05-02T13:03:02.668Z,18.32
2023-05-02T13:05:30.449Z,18.24
2023-05-02T13:07:59.259Z,18.16
2023-05-02T13:10:27.860Z,18.08
2023-05-02T13:12:55.625Z,18.06
2023-05-02T13:15:23.263Z,18.05
2023-05-02T13:17:52.379Z,18.02
2023-05-02T13:20:20.148Z,18.00
2023-05-02T13:22:47.859Z,17.98
2023-05-02T13:25:15.585Z,17.98
2023-05-02T13:27:43.532Z,17.95
2023-05-02T13:30:12.061Z,17.96
2023-05-02T13:32:40.131Z,18.03
2023-05-02T13:35:08.449Z,18.17
2023-05-02T13:37:36.254Z,18.38
2023-05-02T13:40:05.139Z,18.65
2023-05-02T13:42:33.036Z,18.93
2023-05-02T13:45:03.142Z,19.12
2023-05-02T13:47:31.357Z,19.24
2023-05-02T13:49:59.502Z,19.27
2023-05-02T13:52:27.468Z,19.27
2023-05-02T13:54:55.094Z,19.30
2023-05-02T13:57:22.657Z,19.39
2023-05-02T13:59:51.367Z,19.49
2023-05-02T14:02:19.019Z,19.53
2023-05-02T14:04:46.690Z,19.62
2023-05-02T14:07:14.266Z,19.73
2023-05-02T14:09:41.935Z,19.83
2023-05-02T14:12:10.320Z,19.87
2023-05-02T14:14:38.253Z,19.93
2023-05-02T14:17:06.336Z,19.95
2023-05-02T14:19:34.081Z,19.88
2023-05-02T14:22:01.851Z,19.79
2023-05-02T14:24:29.461Z,19.65
2023-05-02T14:26:59.457Z,19.57
2023-05-02T14:29:27.102Z,19.55
2023-05-02T14:31:54.977Z,19.53
2023-05-02T14:34:26.833Z,19.51
2023-05-02T14:36:54.498Z,19.52
2023-05-02T14:39:22.162Z,19.52
2023-05-02T14:41:49.794Z,19.47
2023-05-02T14:44:18.394Z,19.37
2023-05-02T14:46:46.760Z,19.24
2023-05-02T14:49:14.512Z,19.12
2023-05-02T14:51:43.069Z,18.98
2023-05-02T14:54:10.808Z,18.85
2023-05-02T14:56:38.503Z,18.79
2023-05-02T14:59:06.285Z,18.77
2023-05-02T15:01:34.107Z,18.75
2023-05-02T15:06:32.987Z,18.64
2023-05-02T15:09:01.802Z,18.58
2023-05-02T15:11:29.373Z,18.51
2023-05-02T15:13:59.279Z,18.36
2023-05-02T15:16:27.655Z,18.19
2023-05-02T15:18:55.893Z,18.03
2023-05-02T15:21:23.801Z,17.89
2023-05-02T15:23:51.466Z,17.78
2023-05-02T15:26:19.231Z,17.68
2023-05-02T15:28:46.862Z,17.58
2023-05-02T15:31:14.450Z,17.48
2023-05-02T15:33:42.013Z,17.34
2023-05-02T15:36:09.869Z,17.18
2023-05-02T15:38:42.769Z,17.05
2023-05-02T15:41:11.018Z,16.95
2023-05-02T15:43:38.681Z,16.84
2023-05-02T15:46:06.391Z,16.70
2023-05-02T15:48:35.051Z,16.58
2023-05-02T15:51:03.007Z,16.48
2023-05-02T15:53:30.873Z,16.39
2023-05-02T15:55:58.491Z,16.31
2023-05-02T15:58:26.137Z,16.26
2023-05-02T16:00:56.088Z,16.22
2023-05-02T16:03:23.788Z,16.18
2023-05-02T16:05:55.002Z,16.13
2023-05-02T16:08:22.721Z,16.09
2023-05-02T16:10:50.451Z,16.05
2023-05-02T16:13:18.060Z,16.01
2023-05-02T16:15:47.984Z,15.95
2023-05-02T16:18:16.013Z,15.89
2023-05-02T16:20:43.875Z,15.84
2023-05-02T16:23:11.533Z,15.77
2023-05-02T16:25:39.154Z,15.72
2023-05-02T16:28:07.138Z,15.65
2023-05-02T16:30:38.018Z,15.60
2023-05-02T16:33:05.769Z,15.57
2023-05-02T16:35:33.482Z,15.56
2023-05-02T16:38:01.290Z,15.54
2023-05-02T16:40:28.974Z,15.54
2023-05-02T16:42:56.895Z,15.53
2023-05-02T16:45:24.627Z,15.54
2023-05-02T16:47:52.306Z,15.53
2023-05-02T16:50:20.071Z,15.52
2023-05-02T16:52:47.772Z,15.51
2023-05-02T16:55:16.640Z,15.48
2023-05-02T16:57:44.271Z,15.46
2023-05-02T17:00:14.835Z,15.43
2023-05-02T17:02:45.711Z,15.39
2023-05-02T17:05:13.724Z,15.35
2023-05-02T17:07:41.321Z,15.31
2023-05-02T17:10:09.725Z,15.25
2023-05-02T17:12:37.342Z,15.20
2023-05-02T17:15:05.750Z,15.15
2023-05-02T17:17:33.386Z,15.09
2023-05-02T17:20:01.313Z,15.00
2023-05-02T17:22:29.241Z,14.92
2023-05-02T17:24:56.854Z,14.86
2023-05-02T17:27:24.462Z,14.82
2023-05-02T17:29:52.279Z,14.78
2023-05-02T17:32:19.874Z,14.74
2023-05-02T17:34:47.504Z,14.70
2023-05-02T17:37:15.699Z,14.67
2023-05-02T17:39:43.323Z,14.63
2023-05-02T17:42:11.095Z,14.60
2023-05-02T17:44:38.706Z,14.57
2023-05-02T17:47:06.457Z,14.55
2023-05-02T17:49:35.536Z,14.54
2023-05-02T17:52:05.112Z,14.52
2023-05-02T17:54:32.735Z,14.49
2023-05-02T17:57:00.410Z,14.44
2023-05-02T17:59:28.260Z,14.38
2023-05-02T18:01:56.433Z,14.31
2023-05-02T18:04:24.805Z,14.26
2023-05-02T18:06:52.593Z,14.20
2023-05-02T18:09:20.343Z,14.17
2023-05-02T18:11:48.466Z,14.16
2023-05-02T18:14:16.082Z,14.17
2023-05-02T18:16:48.413Z,14.19
2023-05-02T18:19:16.151Z,14.22
2023-05-02T18:21:44.574Z,14.21
2023-05-02T18:24:12.366Z,14.20
2023-05-02T18:26:40.554Z,14.18
2023-05-02T18:29:09.306Z,14.14
2023-05-02T18:31:40.433Z,14.12
2023-05-02T18:34:08.317Z,14.10
2023-05-02T18:36:37.115Z,14.05
2023-05-02T18:39:04.756Z,13.93
2023-05-02T18:41:32.450Z,13.86
2023-05-02T18:44:00.752Z,13.86
2023-05-02T18:46:28.827Z,13.87
2023-05-02T18:48:57.156Z,13.87
2023-05-02T18:51:24.797Z,13.87
2023-05-02T18:53:52.455Z,13.86
2023-05-02T18:56:20.053Z,13.81
2023-05-02T18:58:49.063Z,13.74
2023-05-02T19:01:16.947Z,13.69
2023-05-02T19:03:44.757Z,13.64
2023-05-02T19:06:13.412Z,13.59
2023-05-02T19:08:41.331Z,13.55
2023-05-02T19:11:09.365Z,13.49
2023-05-02T19:13:37.084Z,13.41
2023-05-02T19:16:05.598Z,13.37
2023-05-02T19:18:35.172Z,13.36
2023-05-02T19:21:13.168Z,13.36
2023-05-02T19:23:41.854Z,13.35
2023-05-02T19:26:16.721Z,13.33
2023-05-02T19:28:44.611Z,13.31
2023-05-02T19:31:13.167Z,13.28
2023-05-02T19:33:41.110Z,13.25
2023-05-02T19:36:08.830Z,13.22
2023-05-02T19:38:36.543Z,13.18
2023-05-02T19:41:04.210Z,13.15
2023-05-02T19:43:31.946Z,13.15
2023-05-02T19:45:59.553Z,13.16
2023-05-02T19:48:27.801Z,13.19
2023-05-02T19:50:55.431Z,13.20
2023-05-02T19:53:23.290Z,13.19
2023-05-02T19:55:50.929Z,13.15
2023-05-02T19:58:18.538Z,13.12
2023-05-02T20:00:49.266Z,13.09
2023-05-02T20:03:17.066Z,13.04
2023-05-02T20:05:44.854Z,13.01
2023-05-02T20:08:12.510Z,13.01
2023-05-02T20:10:40.177Z,13.03
2023-05-02T20:13:07.769Z,13.04
2023-05-02T20:15:35.528Z,13.04
2023-05-02T20:18:03.380Z,13.02
2023-05-02T20:20:31.099Z,12.93
2023-05-02T20:22:59.251Z,12.86
2023-05-02T20:25:26.913Z,12.82
2023-05-02T20:27:54.555Z,12.77
2023-05-02T20:30:22.233Z,12.76
2023-05-02T20:32:49.843Z,12.77
2023-05-02T20:35:18.410Z,12.78
2023-05-02T20:37:46.874Z,12.79
2023-05-02T20:40:14.599Z,12.78
2023-05-02T20:42:43.949Z,12.76
2023-05-02T20:45:12.640Z,12.73
2023-05-02T20:47:40.382Z,12.70
2023-05-02T20:50:09.371Z,12.67
2023-05-02T20:52:38.999Z,12.65
2023-05-02T20:55:06.943Z,12.63
2023-05-02T20:57:34.713Z,12.65
2023-05-02T21:00:03.729Z,12.68
2023-05-02T21:02:31.663Z,12.70
2023-05-02T21:04:59.322Z,12.70
2023-05-02T21:07:27.103Z,12.69
2023-05-02T21:09:54.719Z,12.67
2023-05-02T21:12:22.376Z,12.62
2023-05-02T21:14:50.108Z,12.56
2023-05-02T21:17:17.785Z,12.52
2023-05-02T21:19:45.444Z,12.51
2023-05-02T21:22:13.095Z,12.52
2023-05-02T21:24:40.699Z,12.53
2023-05-02T21:27:08.457Z,12.55
2023-05-02T21:29:36.228Z,12.55
2023-05-02T21:32:04.653Z,12.55
2023-05-02T21:34:32.511Z,12.52
2023-05-02T21:37:00.681Z,12.50
2023-05-02T21:39:28.332Z,12.48
2023-05-02T21:41:56.421Z,12.46
2023-05-02T21:44:24.091Z,12.47
2023-05-02T21:46:51.778Z,12.49
2023-05-02T21:49:19.558Z,12.54
2023-05-02T21:51:47.204Z,12.55
2023-05-02T21:54:14.785Z,12.54
2023-05-02T21:56:42.994Z,12.52
2023-05-02T21:59:10.630Z,12.49
2023-05-02T22:01:38.208Z,12.46
2023-05-02T22:04:06.504Z,12.43
2023-05-02T22:06:34.642Z,12.42
2023-05-02T22:09:02.426Z,12.43
2023-05-02T22:11:31.575Z,12.44
2023-05-02T22:13:59.164Z,12.44
2023-05-02T22:16:26.841Z,12.44
2023-05-02T22:18:54.543Z,12.44
2023-05-02T22:21:22.408Z,12.42
2023-05-02T22:23:50.036Z,12.40
2023-05-02T22:26:17.663Z,12.37
2023-05-02T22:28:45.404Z,12.33
2023-05-02T22:31:14.188Z,12.31
2023-05-02T22:33:42.594Z,12.32
2023-05-02T22:36:10.246Z,12.34
2023-05-02T22:38:39.942Z,12.35
2023-05-02T22:41:07.792Z,12.35
2023-05-02T22:43:35.776Z,12.32
2023-05-02T22:46:03.565Z,12.30
2023-05-02T22:48:31.204Z,12.26
2023-05-02T22:50:58.799Z,12.23
2023-05-02T22:53:26.481Z,12.20
2023-05-02T22:55:54.089Z,12.19
2023-05-02T22:58:21.669Z,12.20
2023-05-02T23:00:49.324Z,12.18
2023-05-02T23:03:17.022Z,12.17
2023-05-02T23:05:45.018Z,12.15
2023-05-02T23:08:12.699Z,12.11
2023-05-02T23:10:40.573Z,12.06
2023-05-02T23:13:08.206Z,12.02
2023-05-02T23:15:36.447Z,11.98
2023-05-02T23:18:04.307Z,11.96
2023-05-02T23:20:33.482Z,11.97
2023-05-02T23:23:01.178Z,11.99
2023-05-02T23:25:28.769Z,11.98
2023-05-02T23:27:56.452Z,11.97
2023-05-02T23:30:24.642Z,11.95
2023-05-02T23:32:52.414Z,11.94
2023-05-02T23:35:20.495Z,11.91
2023-05-02T23:37:48.414Z,11.88
2023-05-02T23:40:16.104Z,11.85
2023-05-02T23:42:43.762Z,11.84
2023-05-02T23:45:11.826Z,11.87
2023-05-02T23:47:39.438Z,11.92
2023-05-02T23:50:07.847Z,11.93
2023-05-02T23:52:35.706Z,11.95
2023-05-02T23:55:03.457Z,11.93
2023-05-02T23:57:31.168Z,11.92
2023-05-02T23:59:58.825Z,11.91
